createdAt,value
2023-04-06T00:00:22.396Z,935.45
2023-04-06T00:01:22.414Z,935.41
2023-04-06T00:02:22.489Z,935.43
2023-04-06T00:03:22.541Z,935.42
2023-04-06T00:04:22.460Z,935.44
2023-04-06T00:05:22.467Z,935.50
2023-04-06T00:06:22.484Z,935.46
2023-04-06T00:07:22.508Z,935.57
2023-04-06T00:08:22.571Z,935.60
2023-04-06T00:09:22.539Z,935.65
2023-04-06T00:10:22.574Z,935.63
2023-04-06T00:11:22.571Z,935.61
2023-04-06T00:12:22.594Z,935.57
2023-04-06T00:13:22.606Z,935.56
2023-04-06T00:14:22.607Z,935.57
2023-04-06T00:15:22.631Z,935.59
2023-04-06T00:16:24.996Z,935.62
2023-04-06T00:17:22.656Z,935.67
2023-04-06T00:18:22.682Z,935.64
2023-04-06T00:19:22.695Z,935.63
2023-04-06T00:20:22.712Z,935.62
2023-04-06T00:21:22.784Z,935.63
2023-04-06T00:22:22.746Z,935.67
2023-04-06T00:23:22.750Z,935.66
2023-04-06T00:24:22.771Z,935.72
2023-04-06T00:25:22.810Z,935.72
2023-04-06T00:26:22.829Z,935.71
2023-04-06T00:27:22.812Z,935.75
2023-04-06T00:28:22.836Z,935.70
2023-04-06T00:29:22.854Z,935.72
2023-04-06T00:30:22.863Z,935.75
2023-04-06T00:31:22.877Z,935.74
2023-04-06T00:32:22.956Z,935.71
2023-04-06T00:33:22.926Z,935.72
2023-04-06T00:34:22.931Z,935.74
2023-04-06T00:35:22.940Z,935.70
2023-04-06T00:36:23.015Z,935.74
2023-04-06T00:37:22.993Z,935.71
2023-04-06T00:38:22.994Z,935.70
2023-04-06T00:39:23.013Z,935.69
2023-04-06T00:40:23.021Z,935.76
2023-04-06T00:41:23.035Z,935.72
2023-04-06T00:42:23.076Z,935.70
2023-04-06T00:43:23.064Z,935.66
2023-04-06T00:44:23.087Z,935.69
2023-04-06T00:45:23.097Z,935.71
2023-04-06T00:46:23.147Z,935.67
2023-04-06T00:47:23.304Z,935.68
2023-04-06T00:48:23.150Z,935.72
2023-04-06T00:49:23.169Z,935.72
2023-04-06T00:50:23.182Z,935.74
2023-04-06T00:51:23.190Z,935.77
2023-04-06T00:52:23.213Z,935.83
2023-04-06T00:53:23.221Z,935.81
2023-04-06T00:54:23.246Z,935.85
2023-04-06T00:55:23.258Z,935.82
2023-04-06T00:56:23.281Z,935.86
2023-04-06T00:57:23.294Z,935.81
2023-04-06T00:58:23.336Z,935.83
2023-04-06T00:59:23.374Z,935.83
2023-04-06T01:00:23.383Z,935.85
2023-04-06T01:01:23.362Z,935.82
2023-04-06T01:02:23.421Z,935.83
2023-04-06T01:03:23.379Z,935.84
2023-04-06T01:04:23.408Z,935.85
2023-04-06T01:05:23.485Z,935.82
2023-04-06T01:06:23.468Z,935.81
2023-04-06T01:07:23.443Z,935.81
2023-04-06T01:08:23.463Z,935.81
2023-04-06T01:09:23.480Z,935.77
2023-04-06T01:10:23.489Z,935.76
2023-04-06T01:11:23.506Z,935.77
2023-04-06T01:12:23.529Z,935.78
2023-04-06T01:13:23.546Z,935.76
2023-04-06T01:14:23.571Z,935.77
2023-04-06T01:15:23.572Z,935.75
2023-04-06T01:16:23.621Z,935.76
2023-04-06T01:17:23.621Z,935.75
2023-04-06T01:18:23.613Z,935.76
2023-04-06T01:19:23.636Z,935.71
2023-04-06T01:20:23.646Z,935.76
2023-04-06T01:21:23.660Z,935.75
2023-04-06T01:22:23.683Z,935.82
2023-04-06T01:23:23.707Z,935.83
2023-04-06T01:24:23.716Z,935.80
2023-04-06T01:25:23.730Z,935.81
2023-04-06T01:26:23.765Z,935.80
2023-04-06T01:27:23.764Z,935.80
2023-04-06T01:28:23.777Z,935.77
2023-04-06T01:29:23.799Z,935.79
2023-04-06T01:30:23.832Z,935.79
2023-04-06T01:31:23.915Z,935.78
2023-04-06T01:32:23.854Z,935.84
2023-04-06T01:33:23.861Z,935.82
2023-04-06T01:34:23.871Z,935.84
2023-04-06T01:35:23.990Z,935.80
2023-04-06T01:36:23.895Z,935.82
2023-04-06T01:37:23.911Z,935.83
2023-04-06T01:38:23.924Z,935.80
2023-04-06T01:39:23.954Z,935.85
2023-04-06T01:40:23.955Z,935.82
2023-04-06T01:41:23.970Z,935.82
2023-04-06T01:42:23.993Z,935.81
2023-04-06T01:43:24.051Z,935.87
2023-04-06T01:44:24.029Z,935.93
2023-04-06T01:45:24.039Z,935.93
2023-04-06T01:46:24.100Z,935.91
2023-04-06T01:47:24.093Z,935.94
2023-04-06T01:48:24.078Z,935.93
2023-04-06T01:49:24.107Z,935.92
2023-04-06T01:50:24.108Z,935.95
2023-04-06T01:51:24.126Z,935.92
2023-04-06T01:52:24.147Z,935.93
2023-04-06T01:53:24.163Z,935.99
2023-04-06T01:54:24.192Z,935.98
2023-04-06T01:55:24.202Z,935.96
2023-04-06T01:56:24.209Z,935.95
2023-04-06T01:57:24.218Z,935.94
2023-04-06T01:58:24.242Z,935.99
2023-04-06T01:59:24.284Z,935.99
2023-04-06T02:00:24.270Z,935.99
2023-04-06T02:01:24.337Z,936.00
2023-04-06T02:02:24.392Z,935.93
2023-04-06T02:03:24.310Z,935.96
2023-04-06T02:04:24.333Z,935.95
2023-04-06T02:05:24.355Z,935.89
2023-04-06T02:06:24.364Z,935.85
2023-04-06T02:07:24.384Z,935.80
2023-04-06T02:08:24.395Z,935.77
2023-04-06T02:09:24.410Z,935.74
2023-04-06T02:10:24.433Z,935.73
2023-04-06T02:11:24.440Z,935.73
2023-04-06T02:12:24.457Z,935.75
2023-04-06T02:13:24.479Z,935.75
2023-04-06T02:14:24.486Z,935.75
2023-04-06T02:15:24.519Z,935.75
2023-04-06T02:16:24.554Z,935.73
2023-04-06T02:17:24.579Z,935.74
2023-04-06T02:18:24.573Z,935.70
2023-04-06T02:19:24.571Z,935.69
2023-04-06T02:20:24.602Z,935.71
2023-04-06T02:21:24.590Z,935.68
2023-04-06T02:22:24.610Z,935.66
2023-04-06T02:23:24.632Z,935.63
2023-04-06T02:24:24.633Z,935.62
2023-04-06T02:25:24.664Z,935.63
2023-04-06T02:26:24.672Z,935.62
2023-04-06T02:27:24.685Z,935.64
2023-04-06T02:28:24.705Z,935.59
2023-04-06T02:29:24.712Z,935.59
2023-04-06T02:30:24.727Z,935.63
2023-04-06T02:31:25.170Z,935.65
2023-04-06T02:32:24.808Z,935.69
2023-04-06T02:33:24.775Z,935.70
2023-04-06T02:34:24.814Z,935.68
2023-04-06T02:35:24.830Z,935.65
2023-04-06T02:36:24.830Z,935.66
2023-04-06T02:37:25.053Z,935.67
2023-04-06T02:38:24.861Z,935.68
2023-04-06T02:39:24.874Z,935.69
2023-04-06T02:40:24.893Z,935.74
2023-04-06T02:41:24.897Z,935.78
2023-04-06T02:42:24.918Z,935.75
2023-04-06T02:43:24.935Z,935.75
2023-04-06T02:44:24.952Z,935.76
2023-04-06T02:45:24.966Z,935.66
2023-04-06T02:46:25.262Z,935.63
2023-04-06T02:47:25.027Z,935.62
2023-04-06T02:48:25.011Z,935.61
2023-04-06T02:49:25.027Z,935.60
2023-04-06T02:50:25.065Z,935.60
2023-04-06T02:51:25.057Z,935.64
2023-04-06T02:52:25.072Z,935.65
2023-04-06T02:53:25.090Z,935.63
2023-04-06T02:54:25.105Z,935.64
2023-04-06T02:55:25.120Z,935.59
2023-04-06T02:56:25.138Z,935.60
2023-04-06T02:57:25.141Z,935.56
2023-04-06T02:58:25.160Z,935.54
2023-04-06T02:59:25.216Z,935.54
2023-04-06T03:00:25.189Z,935.49
2023-04-06T03:01:25.212Z,935.48
2023-04-06T03:02:25.303Z,935.48
2023-04-06T03:03:25.274Z,935.46
2023-04-06T03:04:25.251Z,935.50
2023-04-06T03:05:25.275Z,935.47
2023-04-06T03:06:25.304Z,935.44
2023-04-06T03:07:25.300Z,935.39
2023-04-06T03:08:25.311Z,935.38
2023-04-06T03:09:25.333Z,935.35
2023-04-06T03:10:25.344Z,935.34
2023-04-06T03:11:25.357Z,935.37
2023-04-06T03:12:25.385Z,935.37
2023-04-06T03:13:25.397Z,935.37
2023-04-06T03:14:25.404Z,935.45
2023-04-06T03:15:25.434Z,935.44
2023-04-06T03:16:25.664Z,935.42
2023-04-06T03:17:25.513Z,935.41
2023-04-06T03:18:25.466Z,935.38
2023-04-06T03:19:25.489Z,935.39
2023-04-06T03:20:25.497Z,935.39
2023-04-06T03:21:25.518Z,935.36
2023-04-06T03:22:25.548Z,935.36
2023-04-06T03:23:25.550Z,935.39
2023-04-06T03:24:25.563Z,935.35
2023-04-06T03:25:25.580Z,935.34
2023-04-06T03:26:25.584Z,935.30
2023-04-06T03:27:25.607Z,935.30
2023-04-06T03:28:25.625Z,935.33
2023-04-06T03:29:25.631Z,935.32
2023-04-06T03:30:25.655Z,935.32
2023-04-06T03:31:25.689Z,935.33
2023-04-06T03:32:25.726Z,935.35
2023-04-06T03:33:25.698Z,935.37
2023-04-06T03:34:25.713Z,935.33
2023-04-06T03:35:25.787Z,935.36
2023-04-06T03:36:25.744Z,935.35
2023-04-06T03:37:25.752Z,935.33
2023-04-06T03:38:25.809Z,935.34
2023-04-06T03:39:25.819Z,935.34
2023-04-06T03:40:25.831Z,935.33
2023-04-06T03:41:25.814Z,935.34
2023-04-06T03:42:25.832Z,935.34
2023-04-06T03:43:25.850Z,935.33
2023-04-06T03:44:25.865Z,935.32
2023-04-06T03:45:25.888Z,935.33
2023-04-06T03:46:25.979Z,935.32
2023-04-06T03:47:25.930Z,935.27
2023-04-06T03:48:25.928Z,935.28
2023-04-06T03:49:25.950Z,935.28
2023-04-06T03:50:25.956Z,935.24
2023-04-06T03:51:25.971Z,935.21
2023-04-06T03:52:25.982Z,935.23
2023-04-06T03:53:26.003Z,935.18
2023-04-06T03:54:26.042Z,935.22
2023-04-06T03:55:26.026Z,935.22
2023-04-06T03:56:26.040Z,935.23
2023-04-06T03:57:26.063Z,935.23
2023-04-06T03:58:26.089Z,935.21
2023-04-06T03:59:26.148Z,935.20
2023-04-06T04:00:26.109Z,935.22
2023-04-06T04:01:26.126Z,935.24
2023-04-06T04:02:26.269Z,935.21
2023-04-06T04:03:26.266Z,935.22
2023-04-06T04:04:26.169Z,935.18
2023-04-06T04:05:26.292Z,935.14
2023-04-06T04:06:26.401Z,935.13
2023-04-06T04:07:26.215Z,935.10
2023-04-06T04:08:26.237Z,935.05
2023-04-06T04:09:27.908Z,935.08
2023-04-06T04:10:26.277Z,935.05
2023-04-06T04:11:26.277Z,935.10
2023-04-06T04:12:26.698Z,935.06
2023-04-06T04:13:26.300Z,935.08
2023-04-06T04:14:26.324Z,935.10
2023-04-06T04:15:26.329Z,935.09
2023-04-06T04:16:26.453Z,935.05
2023-04-06T04:17:27.002Z,935.04
2023-04-06T04:18:26.390Z,934.99
2023-04-06T04:19:26.403Z,935.00
2023-04-06T04:20:26.423Z,935.01
2023-04-06T04:21:26.430Z,935.00
2023-04-06T04:22:27.049Z,934.98
2023-04-06T04:23:26.458Z,934.97
2023-04-06T04:24:26.476Z,934.97
2023-04-06T04:25:26.496Z,934.92
2023-04-06T04:26:26.524Z,934.92
2023-04-06T04:27:26.521Z,934.93
2023-04-06T04:28:26.540Z,934.88
2023-04-06T04:29:26.551Z,934.89
2023-04-06T04:30:26.563Z,934.91
2023-04-06T04:31:26.592Z,934.89
2023-04-06T04:32:26.626Z,934.89
2023-04-06T04:33:26.611Z,934.92
2023-04-06T04:34:26.627Z,934.88
2023-04-06T04:35:26.683Z,934.87
2023-04-06T04:36:26.675Z,934.88
2023-04-06T04:37:26.687Z,934.90
2023-04-06T04:38:26.696Z,934.88
2023-04-06T04:39:26.707Z,934.87
2023-04-06T04:40:26.728Z,934.89
2023-04-06T04:41:26.736Z,934.85
2023-04-06T04:42:26.780Z,934.85
2023-04-06T04:43:26.774Z,934.87
2023-04-06T04:44:26.783Z,934.87
2023-04-06T04:45:26.803Z,934.91
2023-04-06T04:46:26.837Z,934.84
2023-04-06T04:47:26.860Z,934.84
2023-04-06T04:48:26.849Z,934.82
2023-04-06T04:49:26.870Z,934.82
2023-04-06T04:50:27.087Z,934.79
2023-04-06T04:51:26.916Z,934.76
2023-04-06T04:52:26.920Z,934.76
2023-04-06T04:53:26.930Z,934.69
2023-04-06T04:54:26.948Z,934.69
2023-04-06T04:55:26.972Z,934.65
2023-04-06T04:56:26.968Z,934.65
2023-04-06T04:57:27.000Z,934.68
2023-04-06T04:58:27.026Z,934.65
2023-04-06T04:59:27.064Z,934.65
2023-04-06T05:00:27.032Z,934.69
2023-04-06T05:01:27.118Z,934.71
2023-04-06T05:02:27.282Z,934.68
2023-04-06T05:03:27.193Z,934.67
2023-04-06T05:04:27.091Z,934.69
2023-04-06T05:05:27.118Z,934.64
2023-04-06T05:06:27.120Z,934.64
2023-04-06T05:07:27.139Z,934.61
2023-04-06T05:08:27.160Z,934.62
2023-04-06T05:09:27.167Z,934.60
2023-04-06T05:10:27.189Z,934.56
2023-04-06T05:11:27.199Z,934.56
2023-04-06T05:12:27.220Z,934.59
2023-04-06T05:13:27.243Z,934.56
2023-04-06T05:14:27.271Z,934.62
2023-04-06T05:15:27.306Z,934.64
2023-04-06T05:16:27.294Z,934.63
2023-04-06T05:17:27.331Z,934.67
2023-04-06T05:18:27.333Z,934.70
2023-04-06T05:19:27.335Z,934.65
2023-04-06T05:20:27.336Z,934.65
2023-04-06T05:21:27.494Z,934.64
2023-04-06T05:22:27.385Z,934.59
2023-04-06T05:23:27.386Z,934.61
2023-04-06T05:24:27.411Z,934.62
2023-04-06T05:25:27.461Z,934.64
2023-04-06T05:26:27.428Z,934.64
2023-04-06T05:27:27.455Z,934.64
2023-04-06T05:28:27.469Z,934.66
2023-04-06T05:29:27.485Z,934.65
2023-04-06T05:30:27.530Z,934.62
2023-04-06T05:31:27.549Z,934.61
2023-04-06T05:32:27.560Z,934.62
2023-04-06T05:33:27.541Z,934.58
2023-04-06T05:34:27.568Z,934.54
2023-04-06T05:35:27.637Z,934.53
2023-04-06T05:36:27.586Z,934.53
2023-04-06T05:37:27.612Z,934.54
2023-04-06T05:38:27.617Z,934.48
2023-04-06T05:39:27.620Z,934.51
2023-04-06T05:40:27.642Z,934.42
2023-04-06T05:41:27.670Z,934.45
2023-04-06T05:42:27.670Z,934.46
2023-04-06T05:43:27.686Z,934.47
2023-04-06T05:44:27.701Z,934.48
2023-04-06T05:45:27.708Z,934.46
2023-04-06T05:46:27.793Z,934.44
2023-04-06T05:47:27.778Z,934.43
2023-04-06T05:48:27.959Z,934.44
2023-04-06T05:49:27.775Z,934.44
2023-04-06T05:50:27.785Z,934.44
2023-04-06T05:51:27.816Z,934.41
2023-04-06T05:52:27.826Z,934.44
2023-04-06T05:53:27.838Z,934.43
2023-04-06T05:54:27.851Z,934.46
2023-04-06T05:55:27.864Z,934.47
2023-04-06T05:56:27.890Z,934.48
2023-04-06T05:57:27.895Z,934.50
2023-04-06T05:58:28.717Z,934.46
2023-04-06T05:59:27.989Z,934.48
2023-04-06T06:00:27.932Z,934.49
2023-04-06T06:01:27.953Z,934.49
2023-04-06T06:02:28.163Z,934.50
2023-04-06T06:03:27.980Z,934.51
2023-04-06T06:04:27.991Z,934.50
2023-04-06T06:05:28.089Z,934.48
2023-04-06T06:06:28.039Z,934.49
2023-04-06T06:07:28.045Z,934.48
2023-04-06T06:08:28.062Z,934.46
2023-04-06T06:09:28.070Z,934.46
2023-04-06T06:10:28.260Z,934.40
2023-04-06T06:11:28.097Z,934.41
2023-04-06T06:12:28.129Z,934.41
2023-04-06T06:13:28.133Z,934.42
2023-04-06T06:14:28.140Z,934.41
2023-04-06T06:15:28.156Z,934.43
2023-04-06T06:17:01.397Z,934.42
2023-04-06T06:17:28.245Z,934.41
2023-04-06T06:18:28.238Z,934.47
2023-04-06T06:19:28.236Z,934.44
2023-04-06T06:20:28.312Z,934.43
2023-04-06T06:21:28.247Z,934.42
2023-04-06T06:22:28.261Z,934.46
2023-04-06T06:23:28.474Z,934.43
2023-04-06T06:24:31.266Z,934.44
2023-04-06T06:25:28.324Z,934.47
2023-04-06T06:26:28.322Z,934.42
2023-04-06T06:27:28.346Z,934.41
2023-04-06T06:28:28.354Z,934.44
2023-04-06T06:29:28.377Z,934.46
2023-04-06T06:30:28.431Z,934.44
2023-04-06T06:31:28.476Z,934.39
2023-04-06T06:32:28.437Z,934.42
2023-04-06T06:33:28.442Z,934.42
2023-04-06T06:34:28.478Z,934.38
2023-04-06T06:35:28.502Z,934.36
2023-04-06T06:36:28.495Z,934.37
2023-04-06T06:37:30.677Z,934.38
2023-04-06T06:38:28.518Z,934.43
2023-04-06T06:39:28.729Z,934.39
2023-04-06T06:40:28.791Z,934.41
2023-04-06T06:41:28.553Z,934.41
2023-04-06T06:42:28.567Z,934.40
2023-04-06T06:43:28.591Z,934.38
2023-04-06T06:44:28.605Z,934.40
2023-04-06T06:45:28.639Z,934.37
2023-04-06T06:46:28.637Z,934.36
2023-04-06T06:47:28.694Z,934.34
2023-04-06T06:48:28.932Z,934.35
2023-04-06T06:49:28.678Z,934.34
2023-04-06T06:50:28.742Z,934.39
2023-04-06T06:51:28.725Z,934.36
2023-04-06T06:52:28.730Z,934.34
2023-04-06T06:53:28.766Z,934.36
2023-04-06T06:54:28.762Z,934.30
2023-04-06T06:55:28.778Z,934.32
2023-04-06T06:56:28.797Z,934.33
2023-04-06T06:57:28.809Z,934.31
2023-04-06T06:58:28.822Z,934.33
2023-04-06T06:59:28.901Z,934.35
2023-04-06T07:00:28.890Z,934.35
2023-04-06T07:01:28.898Z,934.34
2023-04-06T07:02:28.892Z,934.36
2023-04-06T07:03:28.885Z,934.36
2023-04-06T07:04:29.027Z,934.36
2023-04-06T07:05:29.234Z,934.37
2023-04-06T07:06:28.958Z,934.39
2023-04-06T07:07:28.973Z,934.43
2023-04-06T07:08:28.967Z,934.41
2023-04-06T07:09:28.983Z,934.46
2023-04-06T07:10:29.025Z,934.46
2023-04-06T07:11:29.007Z,934.47
2023-04-06T07:12:29.034Z,934.50
2023-04-06T07:13:29.085Z,934.49
2023-04-06T07:14:29.066Z,934.53
2023-04-06T07:15:29.075Z,934.49
2023-04-06T07:16:29.173Z,934.45
2023-04-06T07:17:29.173Z,934.47
2023-04-06T07:18:29.145Z,934.45
2023-04-06T07:19:29.154Z,934.44
2023-04-06T07:20:29.155Z,934.41
2023-04-06T07:21:29.156Z,934.39
2023-04-06T07:22:29.201Z,934.37
2023-04-06T07:23:29.200Z,934.45
2023-04-06T07:24:29.282Z,934.48
2023-04-06T07:25:29.376Z,934.51
2023-04-06T07:26:29.230Z,934.54
2023-04-06T07:27:29.269Z,934.57
2023-04-06T07:28:29.277Z,934.56
2023-04-06T07:29:29.292Z,934.55
2023-04-06T07:30:31.572Z,934.57
2023-04-06T07:31:29.392Z,934.56
2023-04-06T07:32:29.342Z,934.57
2023-04-06T07:33:29.341Z,934.56
2023-04-06T07:34:29.350Z,934.60
2023-04-06T07:35:29.382Z,934.60
2023-04-06T07:36:29.382Z,934.59
2023-04-06T07:37:29.414Z,934.56
2023-04-06T07:38:29.491Z,934.58
2023-04-06T07:39:29.434Z,934.59
2023-04-06T07:40:29.447Z,934.59
2023-04-06T07:41:29.468Z,934.56
2023-04-06T07:42:29.479Z,934.57
2023-04-06T07:43:29.519Z,934.58
2023-04-06T07:44:29.513Z,934.61
2023-04-06T07:45:29.521Z,934.58
2023-04-06T07:46:29.638Z,934.58
2023-04-06T07:47:29.556Z,934.59
2023-04-06T07:48:29.568Z,934.60
2023-04-06T07:49:29.586Z,934.62
2023-04-06T07:50:29.594Z,934.62
2023-04-06T07:51:29.622Z,934.61
2023-04-06T07:52:29.649Z,934.61
2023-04-06T07:53:29.644Z,934.57
2023-04-06T07:54:29.698Z,934.60
2023-04-06T07:55:29.852Z,934.59
2023-04-06T07:56:29.687Z,934.59
2023-04-06T07:57:29.712Z,934.55
2023-04-06T07:58:29.721Z,934.51
2023-04-06T07:59:29.745Z,934.48
2023-04-06T08:00:29.746Z,934.49
2023-04-06T08:01:29.761Z,934.51
2023-04-06T08:02:29.886Z,934.55
2023-04-06T08:03:29.935Z,934.53
2023-04-06T08:04:29.878Z,934.56
2023-04-06T08:05:29.821Z,934.56
2023-04-06T08:06:29.842Z,934.60
2023-04-06T08:07:29.855Z,934.60
2023-04-06T08:08:29.877Z,934.59
2023-04-06T08:09:29.882Z,934.61
2023-04-06T08:10:29.930Z,934.65
2023-04-06T08:11:29.915Z,934.64
2023-04-06T08:12:29.932Z,934.64
2023-04-06T08:13:29.959Z,934.65
2023-04-06T08:14:29.958Z,934.66
2023-04-06T08:15:30.040Z,934.66
2023-04-06T08:16:29.992Z,934.64
2023-04-06T08:17:30.019Z,934.68
2023-04-06T08:18:30.022Z,934.66
2023-04-06T08:19:30.028Z,934.63
2023-04-06T08:20:30.066Z,934.63
2023-04-06T08:21:30.061Z,934.60
2023-04-06T08:22:30.080Z,934.61
2023-04-06T08:23:30.099Z,934.64
2023-04-06T08:24:30.180Z,934.59
2023-04-06T08:25:30.127Z,934.58
2023-04-06T08:26:30.280Z,934.60
2023-04-06T08:27:30.158Z,934.59
2023-04-06T08:28:30.172Z,934.59
2023-04-06T08:29:30.179Z,934.62
2023-04-06T08:30:30.193Z,934.63
2023-04-06T08:31:30.245Z,934.63
2023-04-06T08:32:30.235Z,934.64
2023-04-06T08:33:30.250Z,934.63
2023-04-06T08:34:30.255Z,934.70
2023-04-06T08:35:30.348Z,934.73
2023-04-06T08:36:30.301Z,934.67
2023-04-06T08:37:30.306Z,934.69
2023-04-06T08:38:30.312Z,934.71
2023-04-06T08:39:30.330Z,934.73
2023-04-06T08:40:30.355Z,934.76
2023-04-06T08:41:30.377Z,934.77
2023-04-06T08:42:30.407Z,934.76
2023-04-06T08:43:30.396Z,934.75
2023-04-06T08:44:30.404Z,934.77
2023-04-06T08:45:30.419Z,934.77
2023-04-06T08:46:30.496Z,934.74
2023-04-06T08:47:30.486Z,934.73
2023-04-06T08:48:30.465Z,934.70
2023-04-06T08:49:30.495Z,934.75
2023-04-06T08:50:30.502Z,934.76
2023-04-06T08:51:30.519Z,934.78
2023-04-06T08:52:30.552Z,934.77
2023-04-06T08:53:30.542Z,934.81
2023-04-06T08:54:30.556Z,934.81
2023-04-06T08:55:30.568Z,934.84
2023-04-06T08:56:30.590Z,934.82
2023-04-06T08:57:30.612Z,934.83
2023-04-06T08:58:37.830Z,934.81
2023-04-06T08:59:30.668Z,934.86
2023-04-06T09:00:30.657Z,934.90
2023-04-06T09:01:30.709Z,934.83
2023-04-06T09:02:30.764Z,934.88
2023-04-06T09:03:30.792Z,934.83
2023-04-06T09:04:30.912Z,934.88
2023-04-06T09:05:30.720Z,934.85
2023-04-06T09:06:30.733Z,934.82
2023-04-06T09:07:30.748Z,934.81
2023-04-06T09:08:30.772Z,934.79
2023-04-06T09:09:30.796Z,934.81
2023-04-06T09:10:30.791Z,934.85
2023-04-06T09:11:30.812Z,934.86
2023-04-06T09:12:30.822Z,934.85
2023-04-06T09:13:30.857Z,934.90
2023-04-06T09:14:30.882Z,934.86
2023-04-06T09:15:30.868Z,934.90
2023-04-06T09:16:30.915Z,934.91
2023-04-06T09:17:30.974Z,934.92
2023-04-06T09:18:30.914Z,934.94
2023-04-06T09:19:30.929Z,934.96
2023-04-06T09:20:30.949Z,934.97
2023-04-06T09:21:30.967Z,935.02
2023-04-06T09:22:30.973Z,934.97
2023-04-06T09:23:31.112Z,934.98
2023-04-06T09:24:31.014Z,935.02
2023-04-06T09:25:31.038Z,935.05
2023-04-06T09:26:31.043Z,935.01
2023-04-06T09:27:31.051Z,934.99
2023-04-06T09:28:31.070Z,935.02
2023-04-06T09:29:31.088Z,935.01
2023-04-06T09:30:31.128Z,935.03
2023-04-06T09:31:31.220Z,935.02
2023-04-06T09:32:31.165Z,935.01
2023-04-06T09:33:31.149Z,934.97
2023-04-06T09:34:31.160Z,934.99
2023-04-06T09:35:31.229Z,934.99
2023-04-06T09:36:31.195Z,935.00
2023-04-06T09:37:31.203Z,935.00
2023-04-06T09:38:31.225Z,935.01
2023-04-06T09:39:31.233Z,935.00
2023-04-06T09:40:31.267Z,934.98
2023-04-06T09:41:31.287Z,935.00
2023-04-06T09:42:31.276Z,935.04
2023-04-06T09:43:31.304Z,935.04
2023-04-06T09:44:31.323Z,935.04
2023-04-06T09:45:31.331Z,935.08
2023-04-06T09:46:34.108Z,935.09
2023-04-06T09:47:31.430Z,935.12
2023-04-06T09:48:31.389Z,935.11
2023-04-06T09:49:32.450Z,935.13
2023-04-06T09:50:31.404Z,935.17
2023-04-06T09:51:32.268Z,935.17
2023-04-06T09:52:31.431Z,935.18
2023-04-06T09:53:31.461Z,935.21
2023-04-06T09:54:31.464Z,935.21
2023-04-06T09:55:31.478Z,935.23
2023-04-06T09:56:31.490Z,935.24
2023-04-06T09:57:31.581Z,935.27
2023-04-06T09:58:31.536Z,935.30
2023-04-06T09:59:31.573Z,935.29
2023-04-06T10:00:31.619Z,935.31
2023-04-06T10:01:31.633Z,935.34
2023-04-06T10:02:31.729Z,935.38
2023-04-06T10:03:32.067Z,935.40
2023-04-06T10:04:31.611Z,935.38
2023-04-06T10:05:31.619Z,935.41
2023-04-06T10:06:31.629Z,935.43
2023-04-06T10:07:31.654Z,935.45
2023-04-06T10:08:33.181Z,935.49
2023-04-06T10:09:31.676Z,935.50
2023-04-06T10:10:31.708Z,935.52
2023-04-06T10:11:31.714Z,935.53
2023-04-06T10:12:31.725Z,935.54
2023-04-06T10:13:31.757Z,935.57
2023-04-06T10:14:31.746Z,935.58
2023-04-06T10:15:31.794Z,935.61
2023-04-06T10:16:31.926Z,935.56
2023-04-06T10:17:31.822Z,935.63
2023-04-06T10:18:31.859Z,935.65
2023-04-06T10:19:31.831Z,935.66
2023-04-06T10:20:31.849Z,935.66
2023-04-06T10:21:31.863Z,935.68
2023-04-06T10:22:31.865Z,935.66
2023-04-06T10:23:31.904Z,935.69
2023-04-06T10:24:31.906Z,935.68
2023-04-06T10:25:31.911Z,935.70
2023-04-06T10:26:31.932Z,935.72
2023-04-06T10:27:31.949Z,935.71
2023-04-06T10:28:31.955Z,935.75
2023-04-06T10:29:31.973Z,935.76
2023-04-06T10:30:32.001Z,935.76
2023-04-06T10:31:32.044Z,935.79
2023-04-06T10:32:32.056Z,935.81
2023-04-06T10:33:32.035Z,935.80
2023-04-06T10:34:32.088Z,935.81
2023-04-06T10:35:32.099Z,935.82
2023-04-06T10:36:32.094Z,935.82
2023-04-06T10:37:32.120Z,935.79
2023-04-06T10:38:32.130Z,935.79
2023-04-06T10:39:32.147Z,935.80
2023-04-06T10:40:32.167Z,935.80
2023-04-06T10:41:32.783Z,935.84
2023-04-06T10:42:32.183Z,935.84
2023-04-06T10:43:32.226Z,935.81
2023-04-06T10:44:32.216Z,935.82
2023-04-06T10:45:32.300Z,935.78
2023-04-06T10:46:32.277Z,935.78
2023-04-06T10:47:32.286Z,935.84
2023-04-06T10:48:32.280Z,935.81
2023-04-06T10:49:32.297Z,935.81
2023-04-06T10:50:32.329Z,935.82
2023-04-06T10:51:32.317Z,935.85
2023-04-06T10:52:32.340Z,935.86
2023-04-06T10:53:32.350Z,935.85
2023-04-06T10:54:32.371Z,935.90
2023-04-06T10:55:32.393Z,935.88
2023-04-06T10:56:32.409Z,935.88
2023-04-06T10:57:32.426Z,935.88
2023-04-06T10:58:32.421Z,935.83
2023-04-06T10:59:32.567Z,935.85
2023-04-06T11:00:47.107Z,935.85
2023-04-06T11:01:32.502Z,935.86
2023-04-06T11:02:32.517Z,935.88
2023-04-06T11:03:32.495Z,935.87
2023-04-06T11:04:32.527Z,935.85
2023-04-06T11:05:32.533Z,935.85
2023-04-06T11:06:32.614Z,935.84
2023-04-06T11:07:32.569Z,935.84
2023-04-06T11:08:32.568Z,935.83
2023-04-06T11:09:32.621Z,935.84
2023-04-06T11:10:32.597Z,935.80
2023-04-06T11:11:32.620Z,935.83
2023-04-06T11:12:32.630Z,935.85
2023-04-06T11:13:32.649Z,935.80
2023-04-06T11:14:32.659Z,935.83
2023-04-06T11:15:32.677Z,935.80
2023-04-06T11:16:32.830Z,935.80
2023-04-06T11:17:32.755Z,935.79
2023-04-06T11:18:32.733Z,935.77
2023-04-06T11:19:32.734Z,935.78
2023-04-06T11:20:32.752Z,935.72
2023-04-06T11:21:32.766Z,935.72
2023-04-06T11:22:32.805Z,935.71
2023-04-06T11:23:33.232Z,935.71
2023-04-06T11:24:32.813Z,935.69
2023-04-06T11:25:32.819Z,935.68
2023-04-06T11:26:32.848Z,935.69
2023-04-06T11:27:32.849Z,935.72
2023-04-06T11:28:32.878Z,935.71
2023-04-06T11:29:32.896Z,935.67
2023-04-06T11:30:32.915Z,935.72
2023-04-06T11:31:33.030Z,935.70
2023-04-06T11:32:32.922Z,935.68
2023-04-06T11:33:32.959Z,935.68
2023-04-06T11:34:32.957Z,935.67
2023-04-06T11:35:33.060Z,935.71
2023-04-06T11:36:32.985Z,935.71
2023-04-06T11:37:33.008Z,935.71
2023-04-06T11:38:33.037Z,935.70
2023-04-06T11:39:33.044Z,935.70
2023-04-06T11:40:33.449Z,935.70
2023-04-06T11:41:33.061Z,935.66
2023-04-06T11:42:33.081Z,935.65
2023-04-06T11:43:33.097Z,935.66
2023-04-06T11:44:33.124Z,935.68
2023-04-06T11:45:33.120Z,935.66
2023-04-06T11:46:33.147Z,935.72
2023-04-06T11:47:33.177Z,935.74
2023-04-06T11:48:33.253Z,935.75
2023-04-06T11:49:33.221Z,935.74
2023-04-06T11:50:33.210Z,935.75
2023-04-06T11:51:33.216Z,935.76
2023-04-06T11:52:33.228Z,935.81
2023-04-06T11:53:33.252Z,935.76
2023-04-06T11:54:33.289Z,935.77
2023-04-06T11:55:34.410Z,935.80
2023-04-06T11:56:33.292Z,935.80
2023-04-06T11:57:33.298Z,935.76
2023-04-06T11:58:33.310Z,935.76
2023-04-06T11:59:33.494Z,935.70
2023-04-06T12:00:33.346Z,935.71
2023-04-06T12:01:38.798Z,935.78
2023-04-06T12:02:33.451Z,935.72
2023-04-06T12:03:33.524Z,935.72
2023-04-06T12:04:33.439Z,935.74
2023-04-06T12:05:33.422Z,935.76
2023-04-06T12:06:33.439Z,935.75
2023-04-06T12:07:33.444Z,935.75
2023-04-06T12:08:33.470Z,935.77
2023-04-06T12:09:33.485Z,935.77
2023-04-06T12:10:33.515Z,935.82
2023-04-06T12:11:33.512Z,935.76
2023-04-06T12:12:33.519Z,935.78
2023-04-06T12:13:33.540Z,935.77
2023-04-06T12:14:33.554Z,935.77
2023-04-06T12:15:33.564Z,935.79
2023-04-06T12:16:33.694Z,935.81
2023-04-06T12:17:33.633Z,935.76
2023-04-06T12:18:33.617Z,935.81
2023-04-06T12:19:33.628Z,935.83
2023-04-06T12:20:33.650Z,935.82
2023-04-06T12:21:33.654Z,935.85
2023-04-06T12:22:33.669Z,935.84
2023-04-06T12:23:33.692Z,935.84
2023-04-06T12:24:33.719Z,935.82
2023-04-06T12:25:33.809Z,935.83
2023-04-06T12:26:33.906Z,935.90
2023-04-06T12:27:33.905Z,935.88
2023-04-06T12:28:33.844Z,935.90